Hanalei, Hawaii
Current Conditions -  °F | °C
As of 4:53 AM on Friday 19 Dec 2014 (Local Time) from PHLI Reporting Station
Broken Clouds Broken Clouds  
Wind Chill: 24°   Ceiling: 4600
Heat Index: 24°   Visibility: 10mi
Dew Point: 19°   Wind: 12mph
Humidity: 73%   Direction: 80°E
Pressure: 30.1"   Gusts: NA
Location:  22.2°N, 159.49°W
Report Text: PHLI 191453Z 08010KT 10SM BKN046 24/19 A3010 RMK AO2 WSHFT 1409 SLP191 60000 T02390189 56015
Loading
Personal Weather Stations






























Interactive Weather Map New forecast layout! Learn more

10-Day Weather Forecast

Advertisements
Track Severe Weather on mobile